sensor_id;sensor_type;location;lat;lon;timestamp;pressure;altitude;pressure_sealevel;temperature;humidity
80401;BME280;69727;53.132;8.230;2023-05-16T00:02:25;101620.56;;;9.94;74.30
80401;BME280;69727;53.132;8.230;2023-05-16T00:04:51;101632.00;;;9.95;74.93
80401;BME280;69727;53.132;8.230;2023-05-16T00:07:16;101633.78;;;9.96;75.06
80401;BME280;69727;53.132;8.230;2023-05-16T00:09:42;101634.63;;;9.99;74.15
80401;BME280;69727;53.132;8.230;2023-05-16T00:12:07;101630.22;;;9.97;74.17
80401;BME280;69727;53.132;8.230;2023-05-16T00:14:33;101640.78;;;10.00;74.43
80401;BME280;69727;53.132;8.230;2023-05-16T00:17:00;101637.28;;;9.96;74.51
80401;BME280;69727;53.132;8.230;2023-05-16T00:19:26;101640.78;;;9.97;74.85
80401;BME280;69727;53.132;8.230;2023-05-16T00:21:54;101639.94;;;9.91;74.76
80401;BME280;69727;53.132;8.230;2023-05-16T00:24:19;101635.53;;;9.90;74.77
80401;BME280;69727;53.132;8.230;2023-05-16T00:26:45;101634.66;;;9.93;73.86
80401;BME280;69727;53.132;8.230;2023-05-16T00:29:10;101627.59;;;9.93;73.38
80401;BME280;69727;53.132;8.230;2023-05-16T00:31:35;101625.88;;;9.92;72.35
80401;BME280;69727;53.132;8.230;2023-05-16T00:34:01;101622.38;;;9.83;72.80
80401;BME280;69727;53.132;8.230;2023-05-16T00:36:26;101624.97;;;9.89;72.66
80401;BME280;69727;53.132;8.230;2023-05-16T00:38:53;101613.56;;;9.84;72.43
80401;BME280;69727;53.132;8.230;2023-05-16T00:41:18;101613.56;;;9.76;72.80
80401;BME280;69727;53.132;8.230;2023-05-16T00:43:43;101621.50;;;9.79;72.78
80401;BME280;69727;53.132;8.230;2023-05-16T00:46:09;101619.72;;;9.86;71.95
80401;BME280;69727;53.132;8.230;2023-05-16T00:48:34;101613.53;;;9.88;71.37
80401;BME280;69727;53.132;8.230;2023-05-16T00:51:00;101617.97;;;9.85;71.43
80401;BME280;69727;53.132;8.230;2023-05-16T00:53:26;101621.47;;;9.87;71.00
80401;BME280;69727;53.132;8.230;2023-05-16T00:55:52;101624.13;;;9.81;71.17
80401;BME280;69727;53.132;8.230;2023-05-16T00:58:18;101617.97;;;9.83;70.84
80401;BME280;69727;53.132;8.230;2023-05-16T01:00:45;101623.25;;;9.82;71.06
80401;BME280;69727;53.132;8.230;2023-05-16T01:03:11;101617.97;;;9.80;70.57
80401;BME280;69727;53.132;8.230;2023-05-16T01:05:37;101625.03;;;9.73;71.42
80401;BME280;69727;53.132;8.230;2023-05-16T01:08:03;101626.81;;;9.68;71.10
80401;BME280;69727;53.132;8.230;2023-05-16T01:10:40;101627.69;;;9.70;70.59
80401;BME280;69727;53.132;8.230;2023-05-16T01:13:14;101636.50;;;9.65;70.78
80401;BME280;69727;53.132;8.230;2023-05-16T01:15:55;101635.66;;;9.60;71.15
80401;BME280;69727;53.132;8.230;2023-05-16T01:18:41;101636.50;;;9.60;70.73
80401;BME280;69727;53.132;8.230;2023-05-16T01:21:41;101633.00;;;9.53;70.95
80401;BME280;69727;53.132;8.230;2023-05-16T01:24:16;101635.66;;;9.55;70.77
80401;BME280;69727;53.132;8.230;2023-05-16T01:26:47;101647.06;;;9.59;70.87
80401;BME280;69727;53.132;8.230;2023-05-16T01:29:14;101639.16;;;9.52;70.50
80401;BME280;69727;53.132;8.230;2023-05-16T01:31:39;101638.28;;;9.56;70.47
80401;BME280;69727;53.132;8.230;2023-05-16T01:34:05;101639.16;;;9.55;70.33
80401;BME280;69727;53.132;8.230;2023-05-16T01:39:43;101644.44;;;9.63;70.77
80401;BME280;69727;53.132;8.230;2023-05-16T01:42:14;101642.66;;;9.59;71.30
80401;BME280;69727;53.132;8.230;2023-05-16T01:44:45;101640.94;;;9.60;71.66
80401;BME280;69727;53.132;8.230;2023-05-16T01:47:15;101638.28;;;9.60;71.38
80401;BME280;69727;53.132;8.230;2023-05-16T01:50:14;101647.09;;;9.55;71.37
80401;BME280;69727;53.132;8.230;2023-05-16T01:52:45;101649.72;;;9.52;71.35
80401;BME280;69727;53.132;8.230;2023-05-16T01:55:20;101666.47;;;9.51;70.75
80401;BME280;69727;53.132;8.230;2023-05-16T01:57:48;101657.66;;;9.45;70.53
80401;BME280;69727;53.132;8.230;2023-05-16T02:00:14;101657.66;;;9.37;70.73
80401;BME280;69727;53.132;8.230;2023-05-16T02:02:40;101661.22;;;9.28;70.48
80401;BME280;69727;53.132;8.230;2023-05-16T02:05:05;101651.53;;;9.13;70.89
80401;BME280;69727;53.132;8.230;2023-05-16T02:07:31;101661.22;;;9.16;70.69
80401;BME280;69727;53.132;8.230;2023-05-16T02:09:57;101660.34;;;9.11;70.68
80401;BME280;69727;53.132;8.230;2023-05-16T02:12:23;101667.34;;;9.09;70.31
80401;BME280;69727;53.132;8.230;2023-05-16T02:14:49;101668.25;;;9.03;70.65
80401;BME280;69727;53.132;8.230;2023-05-16T02:17:14;101665.59;;;8.92;71.23
80401;BME280;69727;53.132;8.230;2023-05-16T02:19:40;101671.75;;;8.91;70.89
80401;BME280;69727;53.132;8.230;2023-05-16T02:22:05;101657.69;;;8.88;70.86
80401;BME280;69727;53.132;8.230;2023-05-16T02:24:30;101669.09;;;8.85;70.97
80401;BME280;69727;53.132;8.230;2023-05-16T02:26:56;101672.63;;;8.82;71.07
80401;BME280;69727;53.132;8.230;2023-05-16T02:29:21;101681.41;;;8.77;70.99
80401;BME280;69727;53.132;8.230;2023-05-16T02:31:47;101669.94;;;8.64;71.08
80401;BME280;69727;53.132;8.230;2023-05-16T02:34:12;101681.38;;;8.63;71.31
80401;BME280;69727;53.132;8.230;2023-05-16T02:36:37;101677.84;;;8.55;71.80
80401;BME280;69727;53.132;8.230;2023-05-16T02:39:03;101670.78;;;8.54;71.62
80401;BME280;69727;53.132;8.230;2023-05-16T02:41:29;101672.53;;;8.48;71.61
80401;BME280;69727;53.132;8.230;2023-05-16T02:43:54;101683.03;;;8.39;72.13
80401;BME280;69727;53.132;8.230;2023-05-16T02:48:49;101685.59;;;8.27;72.53
80401;BME280;69727;53.132;8.230;2023-05-16T02:51:16;101687.38;;;8.25;72.74
80401;BME280;69727;53.132;8.230;2023-05-16T02:53:41;101696.13;;;8.24;72.44
80401;BME280;69727;53.132;8.230;2023-05-16T02:56:06;101691.72;;;8.17;72.72
80401;BME280;69727;53.132;8.230;2023-05-16T02:58:33;101700.50;;;8.14;73.08
80401;BME280;69727;53.132;8.230;2023-05-16T03:00:58;101698.69;;;8.08;72.30
80401;BME280;69727;53.132;8.230;2023-05-16T03:03:23;101703.94;;;8.05;72.91
80401;BME280;69727;53.132;8.230;2023-05-16T03:05:49;101703.06;;;8.02;72.55
80401;BME280;69727;53.132;8.230;2023-05-16T03:08:15;101705.66;;;7.99;73.04
80401;BME280;69727;53.132;8.230;2023-05-16T03:10:40;101710.91;;;7.96;72.91
80401;BME280;69727;53.132;8.230;2023-05-16T03:13:06;101707.38;;;7.89;73.16
80401;BME280;69727;53.132;8.230;2023-05-16T03:15:31;101701.25;;;7.88;73.35
80401;BME280;69727;53.132;8.230;2023-05-16T03:17:57;101708.19;;;7.79;73.40
80401;BME280;69727;53.132;8.230;2023-05-16T03:20:22;101698.53;;;7.74;73.79
80401;BME280;69727;53.132;8.230;2023-05-16T03:22:47;101706.41;;;7.71;73.38
80401;BME280;69727;53.132;8.230;2023-05-16T03:25:13;101711.69;;;7.74;73.50
80401;BME280;69727;53.132;8.230;2023-05-16T03:27:38;101707.28;;;7.75;72.94
80401;BME280;69727;53.132;8.230;2023-05-16T03:30:04;101705.47;;;7.66;73.30
80401;BME280;69727;53.132;8.230;2023-05-16T03:32:30;101715.13;;;7.67;73.36
80401;BME280;69727;53.132;8.230;2023-05-16T03:34:55;101720.34;;;7.61;73.83
80401;BME280;69727;53.132;8.230;2023-05-16T03:37:21;101723.84;;;7.58;73.67
80401;BME280;69727;53.132;8.230;2023-05-16T03:39:46;101727.34;;;7.57;73.20
80401;BME280;69727;53.132;8.230;2023-05-16T03:42:11;101727.31;;;7.51;73.81
80401;BME280;69727;53.132;8.230;2023-05-16T03:44:37;101733.41;;;7.49;74.26
80401;BME280;69727;53.132;8.230;2023-05-16T03:47:03;101731.69;;;7.49;74.21
80401;BME280;69727;53.132;8.230;2023-05-16T03:49:28;101733.38;;;7.44;74.42
80401;BME280;69727;53.132;8.230;2023-05-16T03:51:54;101743.03;;;7.42;74.62
80401;BME280;69727;53.132;8.230;2023-05-16T03:54:20;101742.16;;;7.42;74.96
80401;BME280;69727;53.132;8.230;2023-05-16T03:56:46;101731.56;;;7.34;75.11
80401;BME280;69727;53.132;8.230;2023-05-16T03:59:11;101746.47;;;7.35;75.35
80401;BME280;69727;53.132;8.230;2023-05-16T04:01:37;101734.16;;;7.29;75.72
80401;BME280;69727;53.132;8.230;2023-05-16T04:04:02;101738.56;;;7.35;75.68
80401;BME280;69727;53.132;8.230;2023-05-16T04:06:28;101739.44;;;7.31;75.79
80401;BME280;69727;53.132;8.230;2023-05-16T04:08:53;101742.06;;;7.31;75.89
80401;BME280;69727;53.132;8.230;2023-05-16T04:11:18;101741.19;;;7.35;75.63
80401;BME280;69727;53.132;8.230;2023-05-16T04:13:44;101745.53;;;7.30;75.64
80401;BME280;69727;53.132;8.230;2023-05-16T04:16:09;101745.56;;;7.33;75.87
80401;BME280;69727;53.132;8.230;2023-05-16T04:18:35;101745.59;;;7.34;76.02
80401;BME280;69727;53.132;8.230;2023-05-16T04:21:00;101747.34;;;7.32;75.98
80401;BME280;69727;53.132;8.230;2023-05-16T04:23:26;101747.34;;;7.34;76.25
80401;BME280;69727;53.132;8.230;2023-05-16T04:25:51;101750.84;;;7.34;76.15
80401;BME280;69727;53.132;8.230;2023-05-16T04:28:17;101758.75;;;7.36;75.81
80401;BME280;69727;53.132;8.230;2023-05-16T04:30:42;101757.91;;;7.37;75.88
80401;BME280;69727;53.132;8.230;2023-05-16T04:33:07;101758.78;;;7.39;75.92
80401;BME280;69727;53.132;8.230;2023-05-16T04:35:33;101764.03;;;7.37;76.32
80401;BME280;69727;53.132;8.230;2023-05-16T04:37:59;101766.72;;;7.44;75.65
80401;BME280;69727;53.132;8.230;2023-05-16T04:40:25;101766.78;;;7.51;74.83
80401;BME280;69727;53.132;8.230;2023-05-16T04:42:51;101767.69;;;7.55;75.10
80401;BME280;69727;53.132;8.230;2023-05-16T04:45:18;101769.50;;;7.59;75.04
80401;BME280;69727;53.132;8.230;2023-05-16T04:47:44;101768.63;;;7.63;74.74
80401;BME280;69727;53.132;8.230;2023-05-16T04:50:09;101761.66;;;7.65;74.64
80401;BME280;69727;53.132;8.230;2023-05-16T04:52:35;101774.88;;;7.73;74.32
80401;BME280;69727;53.132;8.230;2023-05-16T04:55:02;101773.16;;;7.78;73.93
80401;BME280;69727;53.132;8.230;2023-05-16T04:57:28;101781.13;;;7.90;73.95
80401;BME280;69727;53.132;8.230;2023-05-16T04:59:53;101771.50;;;7.96;73.50
80401;BME280;69727;53.132;8.230;2023-05-16T05:02:19;101779.44;;;8.00;73.32
80401;BME280;69727;53.132;8.230;2023-05-16T05:04:44;101787.47;;;8.17;73.08
80401;BME280;69727;53.132;8.230;2023-05-16T05:07:10;101789.25;;;8.27;72.20
80401;BME280;69727;53.132;8.230;2023-05-16T05:09:36;101780.50;;;8.33;71.53
80401;BME280;69727;53.132;8.230;2023-05-16T05:12:07;101781.41;;;8.35;71.36
80401;BME280;69727;53.132;8.230;2023-05-16T05:14:32;101784.97;;;8.40;71.25
80401;BME280;69727;53.132;8.230;2023-05-16T05:16:58;101797.31;;;8.47;71.33
80401;BME280;69727;53.132;8.230;2023-05-16T05:19:23;101790.34;;;8.54;70.98
80401;BME280;69727;53.132;8.230;2023-05-16T05:21:49;101789.50;;;8.68;70.04
80401;BME280;69727;53.132;8.230;2023-05-16T05:24:14;101790.41;;;8.76;70.33
80401;BME280;69727;53.132;8.230;2023-05-16T05:26:40;101794.88;;;8.92;69.44
80401;BME280;69727;53.132;8.230;2023-05-16T05:29:05;101793.13;;;9.04;68.72
80401;BME280;69727;53.132;8.230;2023-05-16T05:31:30;101792.28;;;9.14;67.75
80401;BME280;69727;53.132;8.230;2023-05-16T05:33:58;101796.69;;;9.26;67.30
80401;BME280;69727;53.132;8.230;2023-05-16T05:36:23;101798.47;;;9.33;67.48
80401;BME280;69727;53.132;8.230;2023-05-16T05:38:48;101798.50;;;9.44;67.15
80401;BME280;69727;53.132;8.230;2023-05-16T05:41:14;101798.47;;;9.57;66.40
80401;BME280;69727;53.132;8.230;2023-05-16T05:43:39;101802.03;;;9.58;66.33
80401;BME280;69727;53.132;8.230;2023-05-16T05:46:05;101802.91;;;9.74;65.63
80401;BME280;69727;53.132;8.230;2023-05-16T05:48:31;101799.38;;;9.77;65.61
80401;BME280;69727;53.132;8.230;2023-05-16T05:50:57;101798.50;;;9.85;65.30
80401;BME280;69727;53.132;8.230;2023-05-16T05:53:22;101787.91;;;9.90;64.86
80401;BME280;69727;53.132;8.230;2023-05-16T05:55:47;101794.06;;;10.00;64.58
80401;BME280;69727;53.132;8.230;2023-05-16T05:58:13;101800.25;;;10.11;64.02
80401;BME280;69727;53.132;8.230;2023-05-16T06:00:42;101794.94;;;10.16;64.02
80401;BME280;69727;53.132;8.230;2023-05-16T06:03:15;101788.72;;;10.29;62.84
80401;BME280;69727;53.132;8.230;2023-05-16T06:05:41;101797.53;;;10.45;62.54
80401;BME280;69727;53.132;8.230;2023-05-16T06:08:50;101788.75;;;10.37;62.13
80401;BME280;69727;53.132;8.230;2023-05-16T06:14:28;101816.84;;;10.61;62.23
80401;BME280;69727;53.132;8.230;2023-05-16T06:16:53;101810.66;;;10.74;61.88
80401;BME280;69727;53.132;8.230;2023-05-16T06:19:19;101815.88;;;10.88;62.07
80401;BME280;69727;53.132;8.230;2023-05-16T06:21:44;101812.25;;;11.05;60.87
80401;BME280;69727;53.132;8.230;2023-05-16T06:24:10;101814.94;;;10.98;59.94
80401;BME280;69727;53.132;8.230;2023-05-16T06:26:36;101817.56;;;11.00;60.42
80401;BME280;69727;53.132;8.230;2023-05-16T06:29:01;101819.28;;;11.10;60.20
80401;BME280;69727;53.132;8.230;2023-05-16T06:31:27;101817.50;;;11.12;59.57
80401;BME280;69727;53.132;8.230;2023-05-16T06:33:52;101820.09;;;11.23;58.96
80401;BME280;69727;53.132;8.230;2023-05-16T06:36:18;101827.97;;;11.34;58.29
80401;BME280;69727;53.132;8.230;2023-05-16T06:38:43;101834.16;;;11.30;58.25
80401;BME280;69727;53.132;8.230;2023-05-16T06:41:09;101836.91;;;11.17;59.20
80401;BME280;69727;53.132;8.230;2023-05-16T06:43:34;101831.56;;;11.25;58.05
80401;BME280;69727;53.132;8.230;2023-05-16T06:46:00;101838.56;;;11.35;58.21
80401;BME280;69727;53.132;8.230;2023-05-16T06:48:25;101835.84;;;11.48;58.01
80401;BME280;69727;53.132;8.230;2023-05-16T06:50:51;101836.69;;;11.50;58.16
80401;BME280;69727;53.132;8.230;2023-05-16T06:53:17;101842.91;;;11.47;57.06
80401;BME280;69727;53.132;8.230;2023-05-16T06:55:42;101849.13;;;11.43;57.89
80401;BME280;69727;53.132;8.230;2023-05-16T06:58:08;101848.09;;;11.58;57.87
80401;BME280;69727;53.132;8.230;2023-05-16T07:00:34;101845.38;;;11.72;57.46
80401;BME280;69727;53.132;8.230;2023-05-16T07:02:59;101853.25;;;11.80;55.19
80401;BME280;69727;53.132;8.230;2023-05-16T07:05:25;101840.94;;;11.76;56.06
80401;BME280;69727;53.132;8.230;2023-05-16T07:07:50;101843.59;;;11.76;55.02
80401;BME280;69727;53.132;8.230;2023-05-16T07:10:16;101846.63;;;12.33;53.20
80401;BME280;69727;53.132;8.230;2023-05-16T07:12:41;101845.72;;;12.34;52.95
80401;BME280;69727;53.132;8.230;2023-05-16T07:15:07;101837.38;;;11.78;53.97
80401;BME280;69727;53.132;8.230;2023-05-16T07:17:33;101853.94;;;12.08;53.84
80401;BME280;69727;53.132;8.230;2023-05-16T07:19:58;101843.50;;;12.76;51.29
80401;BME280;69727;53.132;8.230;2023-05-16T07:22:24;101854.91;;;13.51;49.65
80401;BME280;69727;53.132;8.230;2023-05-16T07:24:49;101841.59;;;14.08;48.41
80401;BME280;69727;53.132;8.230;2023-05-16T07:27:17;101851.34;;;14.55;46.30
80401;BME280;69727;53.132;8.230;2023-05-16T07:29:42;101845.47;;;15.27;44.49
80401;BME280;69727;53.132;8.230;2023-05-16T07:32:08;101845.03;;;15.45;44.15
80401;BME280;69727;53.132;8.230;2023-05-16T07:34:33;101843.91;;;15.17;44.07
80401;BME280;69727;53.132;8.230;2023-05-16T07:36:59;101849.50;;;15.04;44.44
80401;BME280;69727;53.132;8.230;2023-05-16T07:39:24;101845.22;;;14.02;45.74
80401;BME280;69727;53.132;8.230;2023-05-16T07:41:50;101841.25;;;13.76;46.79
80401;BME280;69727;53.132;8.230;2023-05-16T07:44:16;101844.56;;;13.30;48.44
80401;BME280;69727;53.132;8.230;2023-05-16T07:46:41;101844.31;;;12.82;50.05
80401;BME280;69727;53.132;8.230;2023-05-16T07:49:09;101845.69;;;12.39;51.93
80401;BME280;69727;53.132;8.230;2023-05-16T07:51:34;101851.28;;;12.08;54.05
80401;BME280;69727;53.132;8.230;2023-05-16T07:54:02;101856.78;;;11.83;53.08
80401;BME280;69727;53.132;8.230;2023-05-16T07:56:27;101852.47;;;11.67;53.10
80401;BME280;69727;53.132;8.230;2023-05-16T07:58:53;101863.94;;;11.67;53.87
80401;BME280;69727;53.132;8.230;2023-05-16T08:01:19;101861.25;;;11.72;52.76
80401;BME280;69727;53.132;8.230;2023-05-16T08:03:44;101856.78;;;11.83;52.01
80401;BME280;69727;53.132;8.230;2023-05-16T08:06:10;101861.94;;;12.02;52.54
80401;BME280;69727;53.132;8.230;2023-05-16T08:08:35;101859.16;;;12.17;50.07
80401;BME280;69727;53.132;8.230;2023-05-16T08:11:01;101852.91;;;12.26;48.08
80401;BME280;69727;53.132;8.230;2023-05-16T08:13:26;101856.44;;;12.23;47.83
80401;BME280;69727;53.132;8.230;2023-05-16T08:15:52;101859.09;;;12.23;48.79
80401;BME280;69727;53.132;8.230;2023-05-16T08:18:17;101864.34;;;12.28;48.44
80401;BME280;69727;53.132;8.230;2023-05-16T08:20:42;101868.78;;;12.29;48.16
80401;BME280;69727;53.132;8.230;2023-05-16T08:23:08;101864.25;;;12.39;46.86
80401;BME280;69727;53.132;8.230;2023-05-16T08:25:34;101854.31;;;12.59;46.01
80401;BME280;69727;53.132;8.230;2023-05-16T08:27:59;101849.53;;;12.89;44.76
80401;BME280;69727;53.132;8.230;2023-05-16T08:30:26;101856.97;;;13.29;44.51
80401;BME280;69727;53.132;8.230;2023-05-16T08:32:52;101852.28;;;13.50;43.23
80401;BME280;69727;53.132;8.230;2023-05-16T08:35:17;101855.19;;;13.30;44.02
80401;BME280;69727;53.132;8.230;2023-05-16T08:37:42;101859.91;;;13.08;43.88
80401;BME280;69727;53.132;8.230;2023-05-16T08:40:11;101867.13;;;13.00;44.55
80401;BME280;69727;53.132;8.230;2023-05-16T08:42:38;101863.66;;;12.91;46.11
80401;BME280;69727;53.132;8.230;2023-05-16T08:45:04;101848.50;;;13.01;46.09
80401;BME280;69727;53.132;8.230;2023-05-16T08:47:31;101855.34;;;13.18;44.64
80401;BME280;69727;53.132;8.230;2023-05-16T08:49:57;101848.06;;;13.32;45.75
80401;BME280;69727;53.132;8.230;2023-05-16T08:52:25;101845.94;;;13.59;44.96
80401;BME280;69727;53.132;8.230;2023-05-16T08:54:53;101849.97;;;13.84;43.17
80401;BME280;69727;53.132;8.230;2023-05-16T08:57:19;101855.47;;;13.72;44.19
80401;BME280;69727;53.132;8.230;2023-05-16T08:59:45;101856.41;;;13.69;43.73
80401;BME280;69727;53.132;8.230;2023-05-16T09:02:11;101858.50;;;13.47;43.74
80401;BME280;69727;53.132;8.230;2023-05-16T09:04:37;101863.88;;;13.44;43.90
80401;BME280;69727;53.132;8.230;2023-05-16T09:07:03;101863.81;;;13.47;41.91
80401;BME280;69727;53.132;8.230;2023-05-16T09:09:28;101854.88;;;13.55;41.85
80401;BME280;69727;53.132;8.230;2023-05-16T09:11:55;101851.06;;;13.71;40.29
80401;BME280;69727;53.132;8.230;2023-05-16T09:14:20;101849.16;;;13.81;39.58
80401;BME280;69727;53.132;8.230;2023-05-16T09:17:02;101854.25;;;13.92;38.46
80401;BME280;69727;53.132;8.230;2023-05-16T09:19:41;101848.75;;;14.02;37.98
80401;BME280;69727;53.132;8.230;2023-05-16T09:22:11;101845.06;;;14.11;37.51
80401;BME280;69727;53.132;8.230;2023-05-16T09:24:42;101865.50;;;14.11;39.21
80401;BME280;69727;53.132;8.230;2023-05-16T09:27:36;101847.53;;;14.22;40.02
80401;BME280;69727;53.132;8.230;2023-05-16T09:37:29;101884.25;;;14.03;44.36
80401;BME280;69727;53.132;8.230;2023-05-16T09:54:00;101906.03;;;12.15;58.39
80401;BME280;69727;53.132;8.230;2023-05-16T09:57:05;101889.41;;;12.83;53.82
80401;BME280;69727;53.132;8.230;2023-05-16T09:59:35;101886.16;;;13.36;49.63
80401;BME280;69727;53.132;8.230;2023-05-16T10:02:01;101885.56;;;13.74;49.42
80401;BME280;69727;53.132;8.230;2023-05-16T10:04:27;101883.41;;;13.98;46.62
80401;BME280;69727;53.132;8.230;2023-05-16T10:06:54;101877.78;;;14.16;47.59
80401;BME280;69727;53.132;8.230;2023-05-16T10:09:23;101883.38;;;14.51;45.40
80401;BME280;69727;53.132;8.230;2023-05-16T10:11:51;101872.44;;;14.68;44.75
80401;BME280;69727;53.132;8.230;2023-05-16T10:14:17;101866.22;;;15.12;44.88
80401;BME280;69727;53.132;8.230;2023-05-16T10:16:45;101865.53;;;15.42;41.85
80401;BME280;69727;53.132;8.230;2023-05-16T10:19:11;101867.81;;;15.96;41.39
80401;BME280;69727;53.132;8.230;2023-05-16T10:21:39;101870.31;;;16.38;41.01
80401;BME280;69727;53.132;8.230;2023-05-16T10:24:10;101887.09;;;16.08;40.78
80401;BME280;69727;53.132;8.230;2023-05-16T10:46:47;101903.25;;;13.78;55.23
80401;BME280;69727;53.132;8.230;2023-05-16T10:49:23;101899.38;;;13.96;52.99
80401;BME280;69727;53.132;8.230;2023-05-16T10:52:09;101902.47;;;14.24;51.16
80401;BME280;69727;53.132;8.230;2023-05-16T10:54:42;101894.16;;;13.92;49.92
80401;BME280;69727;53.132;8.230;2023-05-16T10:57:10;101893.84;;;13.52;52.20
80401;BME280;69727;53.132;8.230;2023-05-16T10:59:54;101913.72;;;13.22;52.07
80401;BME280;69727;53.132;8.230;2023-05-16T11:02:30;101909.81;;;12.79;60.69
80401;BME280;69727;53.132;8.230;2023-05-16T11:04:59;101921.31;;;11.78;73.03
80401;BME280;69727;53.132;8.230;2023-05-16T11:07:30;101928.81;;;10.86;81.70
80401;BME280;69727;53.132;8.230;2023-05-16T11:10:08;101920.91;;;9.92;86.63
80401;BME280;69727;53.132;8.230;2023-05-16T11:12:44;101929.63;;;9.48;88.91
80401;BME280;69727;53.132;8.230;2023-05-16T11:15:19;101922.69;;;9.98;90.30
80401;BME280;69727;53.132;8.230;2023-05-16T11:17:45;101917.38;;;10.56;90.67
80401;BME280;69727;53.132;8.230;2023-05-16T11:20:30;101919.00;;;11.13;91.23
80401;BME280;69727;53.132;8.230;2023-05-16T11:25:57;101911.19;;;12.34;91.94
80401;BME280;69727;53.132;8.230;2023-05-16T11:28:25;101907.16;;;12.79;86.80
80401;BME280;69727;53.132;8.230;2023-05-16T11:30:56;101899.81;;;13.03;88.40
80401;BME280;69727;53.132;8.230;2023-05-16T11:33:22;101913.44;;;12.71;85.95
80401;BME280;69727;53.132;8.230;2023-05-16T11:36:07;101931.03;;;11.79;84.76
80401;BME280;69727;53.132;8.230;2023-05-16T11:38:34;101933.88;;;11.40;85.83
80401;BME280;69727;53.132;8.230;2023-05-16T11:41:04;101934.03;;;11.05;87.75
80401;BME280;69727;53.132;8.230;2023-05-16T11:43:41;101966.78;;;10.63;86.48
80401;BME280;69727;53.132;8.230;2023-05-16T11:46:11;101981.72;;;10.23;87.23
80401;BME280;69727;53.132;8.230;2023-05-16T11:48:36;101956.97;;;9.73;87.65
80401;BME280;69727;53.132;8.230;2023-05-16T11:51:02;101949.03;;;9.48;89.23
80401;BME280;69727;53.132;8.230;2023-05-16T11:53:28;101946.34;;;9.37;88.95
80401;BME280;69727;53.132;8.230;2023-05-16T11:55:53;101951.63;;;9.37;90.65
80401;BME280;69727;53.132;8.230;2023-05-16T11:58:19;101952.53;;;9.49;90.46
80401;BME280;69727;53.132;8.230;2023-05-16T12:00:49;101946.38;;;9.51;89.49
80401;BME280;69727;53.132;8.230;2023-05-16T12:03:18;101948.16;;;9.59;90.94
80401;BME280;69727;53.132;8.230;2023-05-16T12:05:55;101945.50;;;9.55;88.44
80401;BME280;69727;53.132;8.230;2023-05-16T12:08:22;101945.44;;;9.40;86.38
80401;BME280;69727;53.132;8.230;2023-05-16T12:10:50;101949.00;;;9.44;86.95
80401;BME280;69727;53.132;8.230;2023-05-16T12:13:22;101949.13;;;10.01;88.70
80401;BME280;69727;53.132;8.230;2023-05-16T12:15:48;101938.56;;;10.55;89.40
80401;BME280;69727;53.132;8.230;2023-05-16T12:18:15;101938.50;;;10.78;85.73
80401;BME280;69727;53.132;8.230;2023-05-16T12:20:42;101949.09;;;10.84;87.45
80401;BME280;69727;53.132;8.230;2023-05-16T12:23:12;101956.94;;;11.13;84.48
80401;BME280;69727;53.132;8.230;2023-05-16T12:25:39;101955.13;;;11.25;84.06
80401;BME280;69727;53.132;8.230;2023-05-16T12:28:11;101949.88;;;11.14;81.55
80401;BME280;69727;53.132;8.230;2023-05-16T12:30:40;101954.28;;;11.24;81.54
80401;BME280;69727;53.132;8.230;2023-05-16T12:33:10;101939.97;;;11.59;79.02
80401;BME280;69727;53.132;8.230;2023-05-16T12:35:40;101938.16;;;11.66;77.26
80401;BME280;69727;53.132;8.230;2023-05-16T12:38:08;101939.69;;;12.08;79.39
80401;BME280;69727;53.132;8.230;2023-05-16T12:40:37;101937.41;;;12.63;71.88
80401;BME280;69727;53.132;8.230;2023-05-16T12:43:20;101943.63;;;12.62;67.14
80401;BME280;69727;53.132;8.230;2023-05-16T12:46:08;101950.00;;;12.41;66.21
80401;BME280;69727;53.132;8.230;2023-05-16T12:48:35;101959.06;;;12.17;70.66
80401;BME280;69727;53.132;8.230;2023-05-16T12:51:14;101976.91;;;11.87;67.43
80401;BME280;69727;53.132;8.230;2023-05-16T12:53:45;101984.16;;;11.52;65.00
80401;BME280;69727;53.132;8.230;2023-05-16T12:56:12;101994.03;;;11.10;65.88
80401;BME280;69727;53.132;8.230;2023-05-16T12:58:38;101998.50;;;10.74;67.55
80401;BME280;69727;53.132;8.230;2023-05-16T13:01:04;102002.94;;;10.35;68.25
80401;BME280;69727;53.132;8.230;2023-05-16T13:03:31;101985.25;;;10.11;67.19
80401;BME280;69727;53.132;8.230;2023-05-16T13:05:57;101982.63;;;10.14;71.57
80401;BME280;69727;53.132;8.230;2023-05-16T13:08:23;101976.41;;;10.89;65.97
80401;BME280;69727;53.132;8.230;2023-05-16T13:10:48;101972.63;;;11.61;65.65
80401;BME280;69727;53.132;8.230;2023-05-16T13:13:14;101961.63;;;12.29;59.12
80401;BME280;69727;53.132;8.230;2023-05-16T13:15:43;101953.09;;;12.88;61.51
80401;BME280;69727;53.132;8.230;2023-05-16T13:18:08;101954.91;;;13.57;60.49
80401;BME280;69727;53.132;8.230;2023-05-16T13:20:34;101941.66;;;14.15;54.88
80401;BME280;69727;53.132;8.230;2023-05-16T13:22:59;101949.00;;;14.53;53.62
80401;BME280;69727;53.132;8.230;2023-05-16T13:25:25;101939.22;;;15.02;53.04
80401;BME280;69727;53.132;8.230;2023-05-16T13:27:50;101940.16;;;15.42;50.04
80401;BME280;69727;53.132;8.230;2023-05-16T13:30:34;101936.38;;;15.54;48.29
80401;BME280;69727;53.132;8.230;2023-05-16T13:32:59;101928.56;;;15.85;50.10
80401;BME280;69727;53.132;8.230;2023-05-16T13:35:25;101926.47;;;16.34;46.98
80401;BME280;69727;53.132;8.230;2023-05-16T13:37:51;101923.56;;;16.43;44.25
80401;BME280;69727;53.132;8.230;2023-05-16T13:40:17;101922.63;;;16.46;43.80
80401;BME280;69727;53.132;8.230;2023-05-16T13:42:42;101932.41;;;15.72;44.64
80401;BME280;69727;53.132;8.230;2023-05-16T13:45:08;101924.88;;;15.50;45.50
80401;BME280;69727;53.132;8.230;2023-05-16T13:47:33;101925.75;;;15.52;46.85
80401;BME280;69727;53.132;8.230;2023-05-16T13:49:59;101929.13;;;15.18;48.13
80401;BME280;69727;53.132;8.230;2023-05-16T13:52:30;101943.31;;;14.75;50.00